sensor_id;sensor_type;location;lat;lon;timestamp;temperature;humidity
27314;DHT22;14800;48.174;9.798;2022-07-23T00:02:05;24.10;61.90
27314;DHT22;14800;48.174;9.798;2022-07-23T00:04:32;24.10;61.90
27314;DHT22;14800;48.174;9.798;2022-07-23T00:06:58;24.10;62.50
27314;DHT22;14800;48.174;9.798;2022-07-23T00:09:23;24.10;62.70
27314;DHT22;14800;48.174;9.798;2022-07-23T00:11:49;24.10;63.40
27314;DHT22;14800;48.174;9.798;2022-07-23T00:14:15;24.10;63.40
27314;DHT22;14800;48.174;9.798;2022-07-23T00:16:40;24.10;63.90
27314;DHT22;14800;48.174;9.798;2022-07-23T00:19:06;24.10;64.40
27314;DHT22;14800;48.174;9.798;2022-07-23T00:21:31;24.10;64.40
27314;DHT22;14800;48.174;9.798;2022-07-23T00:23:57;24.00;65.20
27314;DHT22;14800;48.174;9.798;2022-07-23T00:26:23;24.00;64.50
27314;DHT22;14800;48.174;9.798;2022-07-23T00:28:48;24.00;64.00
27314;DHT22;14800;48.174;9.798;2022-07-23T00:31:14;23.90;63.80
27314;DHT22;14800;48.174;9.798;2022-07-23T00:33:39;23.80;64.20
27314;DHT22;14800;48.174;9.798;2022-07-23T00:36:05;23.70;64.30
27314;DHT22;14800;48.174;9.798;2022-07-23T00:38:31;23.70;64.90
27314;DHT22;14800;48.174;9.798;2022-07-23T00:40:56;23.70;65.50
27314;DHT22;14800;48.174;9.798;2022-07-23T00:43:23;23.70;65.80
27314;DHT22;14800;48.174;9.798;2022-07-23T00:45:49;23.70;65.70
27314;DHT22;14800;48.174;9.798;2022-07-23T00:48:15;23.70;65.20
27314;DHT22;14800;48.174;9.798;2022-07-23T00:50:40;23.70;65.40
27314;DHT22;14800;48.174;9.798;2022-07-23T00:53:06;23.70;65.60
27314;DHT22;14800;48.174;9.798;2022-07-23T00:55:33;23.60;65.60
27314;DHT22;14800;48.174;9.798;2022-07-23T00:57:59;23.60;65.50
27314;DHT22;14800;48.174;9.798;2022-07-23T01:00:26;23.60;65.50
27314;DHT22;14800;48.174;9.798;2022-07-23T01:02:52;23.60;65.40
27314;DHT22;14800;48.174;9.798;2022-07-23T01:05:17;23.60;65.10
27314;DHT22;14800;48.174;9.798;2022-07-23T01:07:48;23.60;65.20
27314;DHT22;14800;48.174;9.798;2022-07-23T01:10:14;23.50;65.00
27314;DHT22;14800;48.174;9.798;2022-07-23T01:13:09;23.50;64.90
27314;DHT22;14800;48.174;9.798;2022-07-23T01:15:36;23.50;65.50
27314;DHT22;14800;48.174;9.798;2022-07-23T01:18:03;23.40;64.70
27314;DHT22;14800;48.174;9.798;2022-07-23T01:20:29;23.40;64.90
27314;DHT22;14800;48.174;9.798;2022-07-23T01:22:55;23.30;65.20
27314;DHT22;14800;48.174;9.798;2022-07-23T01:25:21;23.20;65.20
27314;DHT22;14800;48.174;9.798;2022-07-23T01:27:47;23.10;65.30
27314;DHT22;14800;48.174;9.798;2022-07-23T01:30:13;23.10;65.60
27314;DHT22;14800;48.174;9.798;2022-07-23T01:32:39;23.00;65.80
27314;DHT22;14800;48.174;9.798;2022-07-23T01:35:05;22.90;66.00
27314;DHT22;14800;48.174;9.798;2022-07-23T01:37:31;22.90;66.40
27314;DHT22;14800;48.174;9.798;2022-07-23T01:39:57;22.80;66.70
27314;DHT22;14800;48.174;9.798;2022-07-23T01:42:23;22.70;66.80
27314;DHT22;14800;48.174;9.798;2022-07-23T01:44:49;22.70;67.30
27314;DHT22;14800;48.174;9.798;2022-07-23T01:47:15;22.60;68.40
27314;DHT22;14800;48.174;9.798;2022-07-23T01:49:40;22.60;68.00
27314;DHT22;14800;48.174;9.798;2022-07-23T01:52:06;22.50;67.80
27314;DHT22;14800;48.174;9.798;2022-07-23T01:54:36;22.40;67.90
27314;DHT22;14800;48.174;9.798;2022-07-23T01:57:02;22.40;68.30
27314;DHT22;14800;48.174;9.798;2022-07-23T01:59:28;22.40;68.00
27314;DHT22;14800;48.174;9.798;2022-07-23T02:01:54;22.40;68.20
27314;DHT22;14800;48.174;9.798;2022-07-23T02:04:21;22.40;68.50
27314;DHT22;14800;48.174;9.798;2022-07-23T02:06:48;22.30;68.60
27314;DHT22;14800;48.174;9.798;2022-07-23T02:09:14;22.30;68.70
27314;DHT22;14800;48.174;9.798;2022-07-23T02:11:39;22.30;68.60
27314;DHT22;14800;48.174;9.798;2022-07-23T02:14:05;22.30;68.70
27314;DHT22;14800;48.174;9.798;2022-07-23T02:16:31;22.30;68.60
27314;DHT22;14800;48.174;9.798;2022-07-23T02:18:56;22.30;68.30
27314;DHT22;14800;48.174;9.798;2022-07-23T02:21:22;22.30;68.30
27314;DHT22;14800;48.174;9.798;2022-07-23T02:23:48;22.30;68.40
27314;DHT22;14800;48.174;9.798;2022-07-23T02:26:14;22.30;68.50
27314;DHT22;14800;48.174;9.798;2022-07-23T02:28:40;22.30;69.00
27314;DHT22;14800;48.174;9.798;2022-07-23T02:31:05;22.20;68.30
27314;DHT22;14800;48.174;9.798;2022-07-23T02:33:32;22.10;68.50
27314;DHT22;14800;48.174;9.798;2022-07-23T02:35:58;22.00;68.50
27314;DHT22;14800;48.174;9.798;2022-07-23T02:38:24;22.00;68.90
27314;DHT22;14800;48.174;9.798;2022-07-23T02:40:49;22.00;69.00
27314;DHT22;14800;48.174;9.798;2022-07-23T02:43:15;22.00;69.30
27314;DHT22;14800;48.174;9.798;2022-07-23T02:45:40;22.00;69.40
27314;DHT22;14800;48.174;9.798;2022-07-23T02:48:06;22.00;69.30
27314;DHT22;14800;48.174;9.798;2022-07-23T02:50:31;22.10;69.70
27314;DHT22;14800;48.174;9.798;2022-07-23T02:52:57;22.10;69.20
27314;DHT22;14800;48.174;9.798;2022-07-23T02:55:23;22.00;69.00
27314;DHT22;14800;48.174;9.798;2022-07-23T02:57:48;22.00;68.50
27314;DHT22;14800;48.174;9.798;2022-07-23T03:00:14;22.00;69.20
27314;DHT22;14800;48.174;9.798;2022-07-23T03:02:40;21.90;70.10
27314;DHT22;14800;48.174;9.798;2022-07-23T03:05:06;21.80;69.30
27314;DHT22;14800;48.174;9.798;2022-07-23T03:07:31;21.70;69.90
27314;DHT22;14800;48.174;9.798;2022-07-23T03:09:57;21.70;70.60
27314;DHT22;14800;48.174;9.798;2022-07-23T03:12:23;21.70;70.80
27314;DHT22;14800;48.174;9.798;2022-07-23T03:14:48;21.60;71.10
27314;DHT22;14800;48.174;9.798;2022-07-23T03:17:14;21.60;71.40
27314;DHT22;14800;48.174;9.798;2022-07-23T03:19:40;21.70;71.40
27314;DHT22;14800;48.174;9.798;2022-07-23T03:22:05;21.70;71.80
27314;DHT22;14800;48.174;9.798;2022-07-23T03:24:31;21.70;71.80
27314;DHT22;14800;48.174;9.798;2022-07-23T03:27:15;21.70;71.70
27314;DHT22;14800;48.174;9.798;2022-07-23T03:29:41;21.60;71.60
27314;DHT22;14800;48.174;9.798;2022-07-23T03:32:07;21.60;72.30
27314;DHT22;14800;48.174;9.798;2022-07-23T03:34:32;21.60;73.40
27314;DHT22;14800;48.174;9.798;2022-07-23T03:36:58;21.60;72.60
27314;DHT22;14800;48.174;9.798;2022-07-23T03:39:24;21.60;72.40
27314;DHT22;14800;48.174;9.798;2022-07-23T03:41:50;21.70;72.70
27314;DHT22;14800;48.174;9.798;2022-07-23T03:44:15;21.70;73.30
27314;DHT22;14800;48.174;9.798;2022-07-23T03:46:41;21.70;72.30
27314;DHT22;14800;48.174;9.798;2022-07-23T03:49:07;21.70;72.50
27314;DHT22;14800;48.174;9.798;2022-07-23T03:51:32;21.70;72.60
27314;DHT22;14800;48.174;9.798;2022-07-23T03:53:58;21.80;72.50
27314;DHT22;14800;48.174;9.798;2022-07-23T03:56:23;21.70;72.50
27314;DHT22;14800;48.174;9.798;2022-07-23T03:58:49;21.60;73.00
27314;DHT22;14800;48.174;9.798;2022-07-23T04:01:15;21.50;73.20
27314;DHT22;14800;48.174;9.798;2022-07-23T04:03:40;21.50;73.70
27314;DHT22;14800;48.174;9.798;2022-07-23T04:06:06;21.40;73.90
27314;DHT22;14800;48.174;9.798;2022-07-23T04:08:32;21.40;74.10
27314;DHT22;14800;48.174;9.798;2022-07-23T04:10:57;21.40;74.20
27314;DHT22;14800;48.174;9.798;2022-07-23T04:13:23;21.30;73.90
27314;DHT22;14800;48.174;9.798;2022-07-23T04:15:48;21.30;74.00
27314;DHT22;14800;48.174;9.798;2022-07-23T04:18:16;21.30;74.00
27314;DHT22;14800;48.174;9.798;2022-07-23T04:20:43;21.40;74.20
27314;DHT22;14800;48.174;9.798;2022-07-23T04:23:09;21.40;74.40
27314;DHT22;14800;48.174;9.798;2022-07-23T04:25:35;21.30;74.60
27314;DHT22;14800;48.174;9.798;2022-07-23T04:28:01;21.30;74.60
27314;DHT22;14800;48.174;9.798;2022-07-23T04:30:26;21.30;74.60
27314;DHT22;14800;48.174;9.798;2022-07-23T04:32:52;21.20;74.70
27314;DHT22;14800;48.174;9.798;2022-07-23T04:35:17;21.20;74.70
27314;DHT22;14800;48.174;9.798;2022-07-23T04:37:43;21.10;74.60
27314;DHT22;14800;48.174;9.798;2022-07-23T04:40:09;21.20;74.80
27314;DHT22;14800;48.174;9.798;2022-07-23T04:42:35;21.10;74.70
27314;DHT22;14800;48.174;9.798;2022-07-23T04:45:01;21.10;74.90
27314;DHT22;14800;48.174;9.798;2022-07-23T04:47:26;21.00;75.10
27314;DHT22;14800;48.174;9.798;2022-07-23T04:49:52;21.00;75.20
27314;DHT22;14800;48.174;9.798;2022-07-23T04:52:17;21.10;75.10
27314;DHT22;14800;48.174;9.798;2022-07-23T04:54:43;21.10;74.90
27314;DHT22;14800;48.174;9.798;2022-07-23T04:57:08;21.20;74.90
27314;DHT22;14800;48.174;9.798;2022-07-23T04:59:34;21.20;74.60
27314;DHT22;14800;48.174;9.798;2022-07-23T05:01:59;21.20;74.40
27314;DHT22;14800;48.174;9.798;2022-07-23T05:04:25;21.20;74.00
27314;DHT22;14800;48.174;9.798;2022-07-23T05:06:51;21.20;74.00
27314;DHT22;14800;48.174;9.798;2022-07-23T05:09:16;21.20;74.00
27314;DHT22;14800;48.174;9.798;2022-07-23T05:11:42;21.20;74.00
27314;DHT22;14800;48.174;9.798;2022-07-23T05:14:07;21.20;74.00
27314;DHT22;14800;48.174;9.798;2022-07-23T05:16:33;21.20;74.00
27314;DHT22;14800;48.174;9.798;2022-07-23T05:18:58;21.20;74.30
27314;DHT22;14800;48.174;9.798;2022-07-23T05:21:24;21.10;74.50
27314;DHT22;14800;48.174;9.798;2022-07-23T05:23:50;21.20;74.80
27314;DHT22;14800;48.174;9.798;2022-07-23T05:26:16;21.20;74.90
27314;DHT22;14800;48.174;9.798;2022-07-23T05:28:41;21.20;74.60
27314;DHT22;14800;48.174;9.798;2022-07-23T05:31:07;21.20;74.50
27314;DHT22;14800;48.174;9.798;2022-07-23T05:33:33;21.10;74.40
27314;DHT22;14800;48.174;9.798;2022-07-23T05:36:03;21.20;74.20
27314;DHT22;14800;48.174;9.798;2022-07-23T05:38:29;21.20;74.40
27314;DHT22;14800;48.174;9.798;2022-07-23T05:40:55;21.20;74.20
27314;DHT22;14800;48.174;9.798;2022-07-23T05:43:21;21.10;74.30
27314;DHT22;14800;48.174;9.798;2022-07-23T05:45:46;21.10;74.70
27314;DHT22;14800;48.174;9.798;2022-07-23T05:48:12;21.00;75.00
27314;DHT22;14800;48.174;9.798;2022-07-23T05:50:37;21.00;75.10
27314;DHT22;14800;48.174;9.798;2022-07-23T05:53:06;21.00;75.10
27314;DHT22;14800;48.174;9.798;2022-07-23T05:55:33;20.90;74.90
27314;DHT22;14800;48.174;9.798;2022-07-23T05:57:59;20.90;75.10
27314;DHT22;14800;48.174;9.798;2022-07-23T06:00:25;20.80;75.60
27314;DHT22;14800;48.174;9.798;2022-07-23T06:02:52;20.80;76.10
27314;DHT22;14800;48.174;9.798;2022-07-23T06:05:18;20.80;76.50
27314;DHT22;14800;48.174;9.798;2022-07-23T06:07:43;20.80;76.60
27314;DHT22;14800;48.174;9.798;2022-07-23T06:10:11;20.90;76.80
27314;DHT22;14800;48.174;9.798;2022-07-23T06:12:37;20.90;76.80
27314;DHT22;14800;48.174;9.798;2022-07-23T06:15:03;20.90;76.80
27314;DHT22;14800;48.174;9.798;2022-07-23T06:17:29;21.00;77.10
27314;DHT22;14800;48.174;9.798;2022-07-23T06:19:55;21.00;77.00
27314;DHT22;14800;48.174;9.798;2022-07-23T06:22:22;21.00;76.90
27314;DHT22;14800;48.174;9.798;2022-07-23T06:24:48;21.10;77.20
27314;DHT22;14800;48.174;9.798;2022-07-23T06:27:14;21.10;77.20
27314;DHT22;14800;48.174;9.798;2022-07-23T06:29:40;21.10;77.30
27314;DHT22;14800;48.174;9.798;2022-07-23T06:32:07;21.10;77.70
27314;DHT22;14800;48.174;9.798;2022-07-23T06:34:32;21.20;77.30
27314;DHT22;14800;48.174;9.798;2022-07-23T06:36:59;21.20;77.30
27314;DHT22;14800;48.174;9.798;2022-07-23T06:39:25;21.30;77.50
27314;DHT22;14800;48.174;9.798;2022-07-23T06:41:51;21.30;77.60
27314;DHT22;14800;48.174;9.798;2022-07-23T06:44:17;21.30;77.50
27314;DHT22;14800;48.174;9.798;2022-07-23T06:46:42;21.40;77.70
27314;DHT22;14800;48.174;9.798;2022-07-23T06:49:08;21.40;77.40
27314;DHT22;14800;48.174;9.798;2022-07-23T06:51:34;21.50;77.40
27314;DHT22;14800;48.174;9.798;2022-07-23T06:54:00;21.50;77.20
27314;DHT22;14800;48.174;9.798;2022-07-23T06:56:25;21.60;77.00
27314;DHT22;14800;48.174;9.798;2022-07-23T06:58:51;21.60;76.60
27314;DHT22;14800;48.174;9.798;2022-07-23T07:01:17;21.70;76.80
27314;DHT22;14800;48.174;9.798;2022-07-23T07:03:42;21.70;76.20
27314;DHT22;14800;48.174;9.798;2022-07-23T07:06:08;21.80;75.90
27314;DHT22;14800;48.174;9.798;2022-07-23T07:08:34;21.80;76.20
27314;DHT22;14800;48.174;9.798;2022-07-23T07:11:00;21.80;76.30
27314;DHT22;14800;48.174;9.798;2022-07-23T07:13:25;21.90;76.40
27314;DHT22;14800;48.174;9.798;2022-07-23T07:15:51;21.90;76.60
27314;DHT22;14800;48.174;9.798;2022-07-23T07:18:17;22.00;76.90
27314;DHT22;14800;48.174;9.798;2022-07-23T07:20:42;22.10;76.50
27314;DHT22;14800;48.174;9.798;2022-07-23T07:23:08;22.10;76.60
27314;DHT22;14800;48.174;9.798;2022-07-23T07:25:34;22.30;76.60
27314;DHT22;14800;48.174;9.798;2022-07-23T07:27:59;22.30;76.50
27314;DHT22;14800;48.174;9.798;2022-07-23T07:30:25;22.40;76.10
27314;DHT22;14800;48.174;9.798;2022-07-23T07:32:51;22.50;76.40
27314;DHT22;14800;48.174;9.798;2022-07-23T07:35:16;22.60;76.10
27314;DHT22;14800;48.174;9.798;2022-07-23T07:37:42;22.60;75.80
27314;DHT22;14800;48.174;9.798;2022-07-23T07:40:08;22.70;75.80
27314;DHT22;14800;48.174;9.798;2022-07-23T07:42:33;22.80;76.10
27314;DHT22;14800;48.174;9.798;2022-07-23T07:44:59;22.90;76.00
27314;DHT22;14800;48.174;9.798;2022-07-23T07:47:25;22.90;76.20
27314;DHT22;14800;48.174;9.798;2022-07-23T07:49:51;23.00;76.00
27314;DHT22;14800;48.174;9.798;2022-07-23T07:52:16;23.10;76.10
27314;DHT22;14800;48.174;9.798;2022-07-23T07:54:42;23.30;76.00
27314;DHT22;14800;48.174;9.798;2022-07-23T07:57:08;23.40;75.70
27314;DHT22;14800;48.174;9.798;2022-07-23T07:59:34;23.50;75.50
27314;DHT22;14800;48.174;9.798;2022-07-23T08:01:59;23.60;74.90
27314;DHT22;14800;48.174;9.798;2022-07-23T08:04:25;23.70;75.30
27314;DHT22;14800;48.174;9.798;2022-07-23T08:06:50;23.80;73.80
27314;DHT22;14800;48.174;9.798;2022-07-23T08:09:16;23.90;73.20
27314;DHT22;14800;48.174;9.798;2022-07-23T08:11:42;23.90;72.50
27314;DHT22;14800;48.174;9.798;2022-07-23T08:14:07;24.00;72.10
27314;DHT22;14800;48.174;9.798;2022-07-23T08:16:34;24.10;72.10
27314;DHT22;14800;48.174;9.798;2022-07-23T08:19:00;24.10;72.10
27314;DHT22;14800;48.174;9.798;2022-07-23T08:21:25;24.20;71.60
27314;DHT22;14800;48.174;9.798;2022-07-23T08:23:51;24.10;71.70
27314;DHT22;14800;48.174;9.798;2022-07-23T08:26:17;24.30;71.50
27314;DHT22;14800;48.174;9.798;2022-07-23T08:28:42;24.40;71.40
27314;DHT22;14800;48.174;9.798;2022-07-23T08:31:08;24.40;71.60
27314;DHT22;14800;48.174;9.798;2022-07-23T08:33:34;24.50;71.50
27314;DHT22;14800;48.174;9.798;2022-07-23T08:36:01;24.60;71.10
27314;DHT22;14800;48.174;9.798;2022-07-23T08:38:27;24.60;70.40
27314;DHT22;14800;48.174;9.798;2022-07-23T08:40:55;24.60;70.20
27314;DHT22;14800;48.174;9.798;2022-07-23T08:43:24;24.70;70.00
27314;DHT22;14800;48.174;9.798;2022-07-23T08:45:55;24.70;70.00
27314;DHT22;14800;48.174;9.798;2022-07-23T08:48:24;24.70;69.90
27314;DHT22;14800;48.174;9.798;2022-07-23T08:50:53;24.70;69.90
27314;DHT22;14800;48.174;9.798;2022-07-23T08:53:23;24.70;69.90
27314;DHT22;14800;48.174;9.798;2022-07-23T08:55:51;24.70;69.90
27314;DHT22;14800;48.174;9.798;2022-07-23T08:58:17;24.70;69.70
27314;DHT22;14800;48.174;9.798;2022-07-23T09:00:44;24.70;69.50
27314;DHT22;14800;48.174;9.798;2022-07-23T09:03:30;24.80;69.70
27314;DHT22;14800;48.174;9.798;2022-07-23T09:05:57;24.80;69.80
27314;DHT22;14800;48.174;9.798;2022-07-23T09:08:26;24.80;69.50
27314;DHT22;14800;48.174;9.798;2022-07-23T09:11:00;24.80;69.20
27314;DHT22;14800;48.174;9.798;2022-07-23T09:15:59;24.90;69.30
27314;DHT22;14800;48.174;9.798;2022-07-23T09:21:09;25.00;68.30
27314;DHT22;14800;48.174;9.798;2022-07-23T09:23:40;25.10;68.80
27314;DHT22;14800;48.174;9.798;2022-07-23T09:26:36;25.10;69.00
27314;DHT22;14800;48.174;9.798;2022-07-23T09:31:53;25.40;68.40
27314;DHT22;14800;48.174;9.798;2022-07-23T09:34:26;25.50;67.40
27314;DHT22;14800;48.174;9.798;2022-07-23T09:36:57;25.60;67.00
27314;DHT22;14800;48.174;9.798;2022-07-23T09:39:31;25.70;66.90
27314;DHT22;14800;48.174;9.798;2022-07-23T09:41:58;25.80;66.40
27314;DHT22;14800;48.174;9.798;2022-07-23T09:44:23;25.80;66.50
27314;DHT22;14800;48.174;9.798;2022-07-23T09:46:50;25.90;66.10
27314;DHT22;14800;48.174;9.798;2022-07-23T09:49:23;26.00;65.70
27314;DHT22;14800;48.174;9.798;2022-07-23T09:54:34;26.10;65.10
27314;DHT22;14800;48.174;9.798;2022-07-23T09:59:36;26.20;65.10
27314;DHT22;14800;48.174;9.798;2022-07-23T10:02:04;26.30;64.60
27314;DHT22;14800;48.174;9.798;2022-07-23T10:04:31;26.40;65.00
27314;DHT22;14800;48.174;9.798;2022-07-23T10:06:59;26.40;63.40
27314;DHT22;14800;48.174;9.798;2022-07-23T10:09:30;26.50;63.80
27314;DHT22;14800;48.174;9.798;2022-07-23T10:11:58;26.60;63.70
27314;DHT22;14800;48.174;9.798;2022-07-23T10:14:29;26.70;63.80
27314;DHT22;14800;48.174;9.798;2022-07-23T10:16:57;26.80;63.80
27314;DHT22;14800;48.174;9.798;2022-07-23T10:19:23;26.90;63.60
27314;DHT22;14800;48.174;9.798;2022-07-23T10:21:53;27.00;63.40
27314;DHT22;14800;48.174;9.798;2022-07-23T10:30:16;27.30;62.50
27314;DHT22;14800;48.174;9.798;2022-07-23T10:40:34;27.50;60.80
27314;DHT22;14800;48.174;9.798;2022-07-23T10:43:00;27.50;60.60
27314;DHT22;14800;48.174;9.798;2022-07-23T10:45:34;27.60;61.20
27314;DHT22;14800;48.174;9.798;2022-07-23T10:50:42;27.50;60.30
27314;DHT22;14800;48.174;9.798;2022-07-23T10:53:15;27.60;60.60
27314;DHT22;14800;48.174;9.798;2022-07-23T10:55:49;27.60;60.60
27314;DHT22;14800;48.174;9.798;2022-07-23T10:58:23;27.60;60.50
27314;DHT22;14800;48.174;9.798;2022-07-23T11:00:49;27.60;60.40
27314;DHT22;14800;48.174;9.798;2022-07-23T11:05:54;27.60;59.70
27314;DHT22;14800;48.174;9.798;2022-07-23T11:08:20;27.60;59.80
27314;DHT22;14800;48.174;9.798;2022-07-23T11:13:55;27.50;60.30
27314;DHT22;14800;48.174;9.798;2022-07-23T11:16:22;27.60;59.50
27314;DHT22;14800;48.174;9.798;2022-07-23T11:24:08;27.50;59.20
27314;DHT22;14800;48.174;9.798;2022-07-23T11:32:27;27.60;59.40
27314;DHT22;14800;48.174;9.798;2022-07-23T11:34:53;27.60;59.90
27314;DHT22;14800;48.174;9.798;2022-07-23T11:37:31;27.60;61.00
27314;DHT22;14800;48.174;9.798;2022-07-23T11:39:58;27.60;60.10
27314;DHT22;14800;48.174;9.798;2022-07-23T11:42:24;27.60;59.90
27314;DHT22;14800;48.174;9.798;2022-07-23T11:44:51;27.70;60.10
27314;DHT22;14800;48.174;9.798;2022-07-23T11:47:22;27.70;59.60
27314;DHT22;14800;48.174;9.798;2022-07-23T11:49:59;27.70;59.50
27314;DHT22;14800;48.174;9.798;2022-07-23T11:52:27;27.80;59.00
27314;DHT22;14800;48.174;9.798;2022-07-23T11:55:00;27.80;59.20
27314;DHT22;14800;48.174;9.798;2022-07-23T11:57:35;27.90;59.50
27314;DHT22;14800;48.174;9.798;2022-07-23T12:00:08;27.90;58.90
27314;DHT22;14800;48.174;9.798;2022-07-23T12:02:36;28.00;59.20
27314;DHT22;14800;48.174;9.798;2022-07-23T12:05:02;28.00;59.00
27314;DHT22;14800;48.174;9.798;2022-07-23T12:09:53;28.00;58.50
27314;DHT22;14800;48.174;9.798;2022-07-23T12:12:21;28.00;58.40
27314;DHT22;14800;48.174;9.798;2022-07-23T12:14:54;28.00;58.40
27314;DHT22;14800;48.174;9.798;2022-07-23T12:17:22;28.10;58.70
27314;DHT22;14800;48.174;9.798;2022-07-23T12:19:52;28.10;58.80
27314;DHT22;14800;48.174;9.798;2022-07-23T12:22:18;28.20;58.90
27314;DHT22;14800;48.174;9.798;2022-07-23T12:24:57;28.20;58.60
27314;DHT22;14800;48.174;9.798;2022-07-23T12:27:23;28.20;58.40
27314;DHT22;14800;48.174;9.798;2022-07-23T12:29:49;28.30;58.60
27314;DHT22;14800;48.174;9.798;2022-07-23T12:32:19;28.30;58.30
27314;DHT22;14800;48.174;9.798;2022-07-23T12:34:45;28.40;58.20
27314;DHT22;14800;48.174;9.798;2022-07-23T12:37:32;28.50;58.20
27314;DHT22;14800;48.174;9.798;2022-07-23T12:39:58;28.50;58.00
27314;DHT22;14800;48.174;9.798;2022-07-23T12:42:24;28.60;58.20
27314;DHT22;14800;48.174;9.798;2022-07-23T12:45:09;28.60;58.20
27314;DHT22;14800;48.174;9.798;2022-07-23T12:48:05;28.70;57.70
27314;DHT22;14800;48.174;9.798;2022-07-23T12:50:52;28.80;57.30
27314;DHT22;14800;48.174;9.798;2022-07-23T12:53:22;28.90;57.40
27314;DHT22;14800;48.174;9.798;2022-07-23T12:55:50;29.00;57.60
27314;DHT22;14800;48.174;9.798;2022-07-23T12:58:18;29.10;57.60
27314;DHT22;14800;48.174;9.798;2022-07-23T13:01:37;29.10;57.40
27314;DHT22;14800;48.174;9.798;2022-07-23T13:03:43;29.20;56.70
27314;DHT22;14800;48.174;9.798;2022-07-23T13:06:10;29.20;57.50
27314;DHT22;14800;48.174;9.798;2022-07-23T13:08:38;29.30;57.50
27314;DHT22;14800;48.174;9.798;2022-07-23T13:11:05;29.30;57.30
27314;DHT22;14800;48.174;9.798;2022-07-23T13:13:33;29.40;57.20
27314;DHT22;14800;48.174;9.798;2022-07-23T13:16:00;29.40;57.40
27314;DHT22;14800;48.174;9.798;2022-07-23T13:18:26;29.40;57.10
27314;DHT22;14800;48.174;9.798;2022-07-23T13:20:53;29.40;57.30
27314;DHT22;14800;48.174;9.798;2022-07-23T13:23:18;29.40;57.10
27314;DHT22;14800;48.174;9.798;2022-07-23T13:25:45;29.50;57.20
27314;DHT22;14800;48.174;9.798;2022-07-23T13:28:11;29.40;57.20
27314;DHT22;14800;48.174;9.798;2022-07-23T13:30:36;29.40;57.40
27314;DHT22;14800;48.174;9.798;2022-07-23T13:33:04;29.30;57.20
27314;DHT22;14800;48.174;9.798;2022-07-23T13:35:30;29.20;57.50
27314;DHT22;14800;48.174;9.798;2022-07-23T13:37:56;29.20;57.50
27314;DHT22;14800;48.174;9.798;2022-07-23T13:40:22;29.10;57.70
27314;DHT22;14800;48.174;9.798;2022-07-23T13:42:48;29.00;57.80
27314;DHT22;14800;48.174;9.798;2022-07-23T13:45:13;29.00;57.90
27314;DHT22;14800;48.174;9.798;2022-07-23T13:47:40;29.00;58.00
27314;DHT22;14800;48.174;9.798;2022-07-23T13:50:06;28.90;58.30
27314;DHT22;14800;48.174;9.798;2022-07-23T13:52:32;28.80;58.60
27314;DHT22;14800;48.174;9.798;2022-07-23T13:55:02;28.80;58.20
27314;DHT22;14800;48.174;9.798;2022-07-23T13:57:29;28.70;58.30
27314;DHT22;14800;48.174;9.798;2022-07-23T13:59:55;28.70;58.60
27314;DHT22;14800;48.174;9.798;2022-07-23T14:02:21;28.60;58.80
27314;DHT22;14800;48.174;9.798;2022-07-23T14:04:47;28.50;58.90
27314;DHT22;14800;48.174;9.798;2022-07-23T14:07:12;28.60;58.70
27314;DHT22;14800;48.174;9.798;2022-07-23T14:09:38;28.60;58.70
27314;DHT22;14800;48.174;9.798;2022-07-23T14:12:04;28.60;57.80
27314;DHT22;14800;48.174;9.798;2022-07-23T14:14:30;28.50;56.70
27314;DHT22;14800;48.174;9.798;2022-07-23T14:16:56;28.40;56.80
27314;DHT22;14800;48.174;9.798;2022-07-23T14:19:22;28.20;57.60
27314;DHT22;14800;48.174;9.798;2022-07-23T14:21:48;28.10;58.50
27314;DHT22;14800;48.174;9.798;2022-07-23T14:24:14;27.90;59.00
27314;DHT22;14800;48.174;9.798;2022-07-23T14:26:40;27.70;59.60
27314;DHT22;14800;48.174;9.798;2022-07-23T14:29:06;27.60;59.70
27314;DHT22;14800;48.174;9.798;2022-07-23T14:31:32;27.50;59.70
27314;DHT22;14800;48.174;9.798;2022-07-23T14:33:57;27.50;60.10
27314;DHT22;14800;48.174;9.798;2022-07-23T14:36:24;27.50;59.90
27314;DHT22;14800;48.174;9.798;2022-07-23T14:38:50;27.50;59.80
27314;DHT22;14800;48.174;9.798;2022-07-23T14:41:16;27.60;59.60
27314;DHT22;14800;48.174;9.798;2022-07-23T14:43:42;27.70;59.50
27314;DHT22;14800;48.174;9.798;2022-07-23T14:46:08;27.80;59.40
27314;DHT22;14800;48.174;9.798;2022-07-23T14:48:34;27.90;59.20
27314;DHT22;14800;48.174;9.798;2022-07-23T14:50:59;28.10;59.10
27314;DHT22;14800;48.174;9.798;2022-07-23T14:53:25;28.20;59.00
27314;DHT22;14800;48.174;9.798;2022-07-23T14:55:51;28.40;58.90
27314;DHT22;14800;48.174;9.798;2022-07-23T14:58:16;28.50;58.40
27314;DHT22;14800;48.174;9.798;2022-07-23T15:00:43;28.60;58.30
27314;DHT22;14800;48.174;9.798;2022-07-23T15:03:08;28.70;58.40
27314;DHT22;14800;48.174;9.798;2022-07-23T15:05:34;28.80;58.00
27314;DHT22;14800;48.174;9.798;2022-07-23T15:08:00;29.00;58.20
27314;DHT22;14800;48.174;9.798;2022-07-23T15:10:25;29.10;58.40
27314;DHT22;14800;48.174;9.798;2022-07-23T15:12:51;29.30;58.10
27314;DHT22;14800;48.174;9.798;2022-07-23T15:15:17;29.50;57.00
27314;DHT22;14800;48.174;9.798;2022-07-23T15:17:44;29.70;57.20
27314;DHT22;14800;48.174;9.798;2022-07-23T15:20:09;29.80;57.00
27314;DHT22;14800;48.174;9.798;2022-07-23T15:22:35;30.00;56.60
27314;DHT22;14800;48.174;9.798;2022-07-23T15:25:00;30.00;56.40
27314;DHT22;14800;48.174;9.798;2022-07-23T15:27:27;30.10;56.40
27314;DHT22;14800;48.174;9.798;2022-07-23T15:29:53;30.20;56.70
27314;DHT22;14800;48.174;9.798;2022-07-23T15:32:18;30.30;57.00
27314;DHT22;14800;48.174;9.798;2022-07-23T15:34:44;30.40;56.80
27314;DHT22;14800;48.174;9.798;2022-07-23T15:37:10;30.50;57.10
27314;DHT22;14800;48.174;9.798;2022-07-23T15:39:35;30.60;56.20
27314;DHT22;14800;48.174;9.798;2022-07-23T15:42:02;30.70;55.80
27314;DHT22;14800;48.174;9.798;2022-07-23T15:44:28;30.80;55.50
27314;DHT22;14800;48.174;9.798;2022-07-23T15:46:54;30.90;55.40
27314;DHT22;14800;48.174;9.798;2022-07-23T15:49:21;30.90;55.20
27314;DHT22;14800;48.174;9.798;2022-07-23T15:51:47;31.00;55.60
27314;DHT22;14800;48.174;9.798;2022-07-23T15:54:12;31.10;55.10
27314;DHT22;14800;48.174;9.798;2022-07-23T15:56:38;31.20;54.70
27314;DHT22;14800;48.174;9.798;2022-07-23T15:59:04;31.20;54.40
27314;DHT22;14800;48.174;9.798;2022-07-23T16:01:30;31.20;54.30
27314;DHT22;14800;48.174;9.798;2022-07-23T16:03:56;31.20;54.20
27314;DHT22;14800;48.174;9.798;2022-07-23T16:06:24;31.10;54.10
27314;DHT22;14800;48.174;9.798;2022-07-23T16:08:50;31.00;53.80
27314;DHT22;14800;48.174;9.798;2022-07-23T16:11:16;30.90;53.90
27314;DHT22;14800;48.174;9.798;2022-07-23T16:13:42;30.80;54.00
27314;DHT22;14800;48.174;9.798;2022-07-23T16:16:08;30.70;54.20
27314;DHT22;14800;48.174;9.798;2022-07-23T16:18:34;30.50;54.30